Time;durP1;ratioP1;P1;durP2;ratioP2;P2;SDS_P1;SDS_P2;PMS_P1;PMS_P2;Temp;Humidity;BMP_temperature;BMP_pressure;BME280_temperature;BME280_humidity;BME280_pressure;Samples;Min_cycle;Max_cycle;Signal;HPM_P1;HPM_P2
2022/11/17 00:00:29;;;;;;;40.55;18.63;;;;;;;8.54;100.00;98719.69;5055331;28;20036;-47
2022/11/17 00:02:55;;;;;;;41.17;19.38;;;;;;;8.54;100.00;98715.41;5054118;28;20025;-47
2022/11/17 00:05:20;;;;;;;42.97;19.70;;;;;;;8.55;100.00;98709.44;5055386;28;20021;-46
2022/11/17 00:07:47;;;;;;;35.97;19.08;;;;;;;8.56;100.00;98713.72;5054997;28;20028;-47
2022/11/17 00:10:13;;;;;;;45.60;20.20;;;;;;;8.57;100.00;98702.59;5054274;28;20033;-47
2022/11/17 00:15:23;;;;;;;42.78;19.92;;;;;;;8.57;100.00;98679.50;5055391;28;20059;-47
2022/11/17 00:21:17;;;;;;;48.10;20.10;;;;;;;8.60;100.00;98685.47;5053874;28;20392;-47
2022/11/17 00:23:20;;;;;;;46.33;19.08;;;;;;;8.61;100.00;98664.97;5054413;28;20044;-48
2022/11/17 00:25:45;;;;;;;37.70;17.10;;;;;;;8.65;100.00;98676.06;5054153;28;20100;-47
2022/11/17 00:28:11;;;;;;;40.55;17.45;;;;;;;8.67;100.00;98670.09;5054794;28;20031;-47
2022/11/17 00:36:04;;;;;;;38.70;17.58;;;;;;;8.68;100.00;98638.41;5054500;28;20040;-47
2022/11/17 00:38:29;;;;;;;39.47;17.85;;;;;;;8.69;100.00;98629.03;5053743;28;20033;-47
2022/11/17 00:40:57;;;;;;;33.20;17.10;;;;;;;8.66;100.00;98623.88;5054221;28;20036;-46
2022/11/17 00:43:22;;;;;;;46.75;18.15;;;;;;;8.66;100.00;98605.88;5054379;28;20484;-48
2022/11/17 00:45:47;;;;;;;42.30;17.67;;;;;;;8.66;100.00;98616.16;5053144;28;20036;-46
2022/11/17 00:48:13;;;;;;;39.45;16.77;;;;;;;8.68;100.00;98617.03;5054510;28;20085;-48
2022/11/17 00:50:38;;;;;;;33.72;16.55;;;;;;;8.67;100.00;98612.75;5054467;28;20037;-47
2022/11/17 00:53:03;;;;;;;28.33;15.80;;;;;;;8.69;100.00;98609.31;5053296;28;20028;-45
2022/11/17 00:55:29;;;;;;;32.70;15.02;;;;;;;8.68;100.00;98605.03;5054192;28;20025;-48
2022/11/17 00:57:54;;;;;;;34.65;15.60;;;;;;;8.69;100.00;98605.91;5053754;28;20407;-44
2022/11/17 01:00:20;;;;;;;34.55;15.85;;;;;;;8.70;100.00;98594.75;5053097;28;20032;-47
2022/11/17 01:02:45;;;;;;;27.58;13.43;;;;;;;8.71;100.00;98584.50;5053967;28;20479;-47
2022/11/17 01:05:10;;;;;;;33.95;14.32;;;;;;;8.75;100.00;98590.47;5054139;28;20099;-47
2022/11/17 01:07:35;;;;;;;27.00;14.05;;;;;;;8.73;100.00;98587.06;5053267;28;20083;-44
2022/11/17 01:10:01;;;;;;;29.55;13.93;;;;;;;8.73;100.00;98582.78;5053621;28;20028;-47
2022/11/17 01:12:26;;;;;;;29.75;13.73;;;;;;;8.76;100.00;98587.06;5053329;28;20048;-47
2022/11/17 01:14:51;;;;;;;33.50;13.82;;;;;;;8.74;100.00;98583.66;5053673;28;20059;-48
2022/11/17 01:17:16;;;;;;;23.63;12.90;;;;;;;8.75;100.00;98582.78;5053745;28;20510;-47
2022/11/17 01:19:42;;;;;;;27.55;12.95;;;;;;;8.75;100.00;98577.66;5052531;28;20102;-49
2022/11/17 01:22:07;;;;;;;27.30;13.10;;;;;;;8.75;100.00;98564.81;5053830;28;20020;-47
2022/11/17 01:24:32;;;;;;;20.50;11.43;;;;;;;8.78;100.00;98559.69;5053702;28;20040;-46
2022/11/17 01:26:57;;;;;;;22.75;11.15;;;;;;;8.84;100.00;98571.66;5052523;28;20024;-46
2022/11/17 01:29:23;;;;;;;23.02;10.30;;;;;;;8.85;100.00;98575.94;5053678;28;20029;-45
2022/11/17 01:31:50;;;;;;;21.27;10.52;;;;;;;8.84;100.00;98567.38;5053299;28;20086;-47
2022/11/17 01:34:15;;;;;;;21.27;9.85;;;;;;;8.86;100.00;98557.13;5052788;28;20021;-47
2022/11/17 01:39:27;;;;;;;16.60;8.23;;;;;;;8.92;100.00;98551.09;5053756;28;20559;-47
2022/11/17 01:41:53;;;;;;;19.90;8.63;;;;;;;8.92;100.00;98545.97;5052330;28;20029;-47
2022/11/17 01:44:56;;;;;;;21.83;7.53;;;;;;;8.94;100.00;98528.84;5053297;28;20472;-47
2022/11/17 01:47:30;;;;;;;16.23;5.70;;;;;;;8.99;100.00;98516.84;5053466;28;20159;-47
2022/11/17 01:50:02;;;;;;;13.82;5.63;;;;;;;9.05;100.00;98509.09;5052635;28;20472;-47
2022/11/17 01:52:30;;;;;;;11.15;5.13;;;;;;;9.04;100.00;98505.69;5053175;28;20039;-44
2022/11/17 01:54:58;;;;;;;17.92;5.60;;;;;;;9.06;100.00;98511.69;5052247;28;20029;-47
2022/11/17 01:57:28;;;;;;;;;;;;;;;9.11;100.00;98510.84;5053419;28;20091;-47
2022/11/17 01:59:59;;;;;;;12.30;5.57;;;;;;;9.06;100.00;98519.41;5052887;28;19928;-47
2022/11/17 02:02:24;;;;;;;12.20;5.90;;;;;;;9.07;100.00;98515.13;5052304;28;20039;-47
2022/11/17 02:05:02;;;;;;;12.35;6.35;;;;;;;9.07;100.00;98502.28;5052774;28;20021;-47
2022/11/17 02:07:33;;;;;;;12.52;5.85;;;;;;;9.10;100.00;98503.97;5053156;28;20087;-47
2022/11/17 02:10:00;;;;;;;12.60;6.28;;;;;;;9.15;100.00;98497.94;5052078;28;20029;-47
2022/11/17 02:12:26;;;;;;;16.38;6.25;;;;;;;9.13;100.00;98502.25;5053047;28;20021;-47
2022/11/17 02:14:53;;;;;;;11.63;6.00;;;;;;;9.14;100.00;98509.13;5052612;28;20033;-47
2022/11/17 02:17:20;;;;;;;11.10;5.45;;;;;;;9.15;100.00;98499.69;5052060;28;20033;-46
2022/11/17 02:20:04;;;;;;;14.50;6.03;;;;;;;9.19;100.00;98494.53;5052407;28;20405;-46
2022/11/17 02:23:10;;;;;;;13.48;6.22;;;;;;;9.17;100.00;98496.25;5053092;28;20025;-46
2022/11/17 02:25:56;;;;;;;11.85;5.70;;;;;;;9.17;100.00;98490.25;5052797;28;20105;-48
2022/11/17 02:28:28;;;;;;;9.80;4.97;;;;;;;9.16;100.00;98499.66;5052930;28;20029;-47
2022/11/17 02:31:11;;;;;;;11.95;5.30;;;;;;;9.17;100.00;98500.53;5051788;28;20021;-45
2022/11/17 02:33:56;;;;;;;16.15;5.70;;;;;;;9.17;100.00;98495.41;5052701;28;20369;-47
2022/11/17 02:36:40;;;;;;;9.88;5.28;;;;;;;9.21;100.00;98486.81;5052826;28;20033;-46
2022/11/17 02:39:13;;;;;;;12.45;5.50;;;;;;;9.22;100.00;98468.81;5051619;28;20525;-45
2022/11/17 02:41:54;;;;;;;14.15;5.47;;;;;;;9.22;100.00;98480.81;5052613;28;20411;-47
2022/11/17 02:44:35;;;;;;;11.80;5.38;;;;;;;9.23;100.00;98480.81;5051734;28;20488;-48
2022/11/17 02:47:11;;;;;;;13.32;5.25;;;;;;;9.23;100.00;98473.09;5052667;28;20025;-48
2022/11/17 02:49:40;;;;;;;12.43;5.03;;;;;;;9.25;100.00;98467.13;5056793;28;20028;-46
2022/11/17 02:52:07;;;;;;;10.98;4.68;;;;;;;9.28;100.00;98456.81;5055815;28;20028;-47
2022/11/17 02:54:32;;;;;;;11.60;5.20;;;;;;;9.28;100.00;98451.66;5056613;28;20028;-46
2022/11/17 02:56:58;;;;;;;10.43;5.05;;;;;;;9.28;100.00;98443.97;5055956;28;20045;-47
2022/11/17 02:59:34;;;;;;;10.25;4.32;;;;;;;9.25;100.00;98433.69;5055449;28;20025;-45
2022/11/17 03:02:23;;;;;;;10.73;4.63;;;;;;;9.23;100.00;98438.81;5056217;28;20029;-47
2022/11/17 03:05:25;;;;;;;8.48;4.28;;;;;;;9.20;100.00;98423.44;5056158;28;20039;-46
2022/11/17 03:08:09;;;;;;;8.27;4.07;;;;;;;9.16;100.00;98422.56;5056158;28;20025;-47
2022/11/17 03:10:43;;;;;;;13.60;4.07;;;;;;;9.17;100.00;98413.16;5056126;28;20422;-47
2022/11/17 03:13:16;;;;;;;9.45;3.70;;;;;;;9.17;100.00;98418.31;5055643;28;20086;-48
2022/11/17 03:15:55;;;;;;;9.07;3.72;;;;;;;9.14;100.00;98416.59;5055860;28;20036;-46
2022/11/17 03:18:35;;;;;;;8.65;3.22;;;;;;;9.12;100.00;98405.47;5056314;28;20103;-48
2022/11/17 03:21:20;;;;;;;8.48;3.47;;;;;;;9.09;100.00;98402.91;5055124;28;20037;-47
2022/11/17 03:23:49;;;;;;;12.75;3.22;;;;;;;9.06;100.00;98390.06;5055624;28;20106;-47
2022/11/17 03:26:32;;;;;;;6.00;2.65;;;;;;;9.05;100.00;98388.34;5055054;28;20467;-47
2022/11/17 03:29:00;;;;;;;10.98;3.25;;;;;;;9.02;100.00;98383.25;5055764;28;20067;-47
2022/11/17 03:31:27;;;;;;;7.28;2.88;;;;;;;9.00;100.00;98379.81;5055896;28;20029;-47
2022/11/17 03:33:53;;;;;;;8.77;2.78;;;;;;;9.02;100.00;98370.38;5054875;28;20021;-48
2022/11/17 03:36:25;;;;;;;5.65;2.60;;;;;;;9.00;100.00;98382.38;5055635;28;20400;-46
2022/11/17 03:38:58;;;;;;;5.03;2.38;;;;;;;8.98;100.00;98386.69;5055200;28;20472;-46
2022/11/17 03:41:27;;;;;;;6.88;2.35;;;;;;;8.98;100.00;98382.38;5055024;28;20033;-44
2022/11/17 03:43:56;;;;;;;6.03;2.53;;;;;;;8.93;100.00;98378.13;5055468;28;20107;-46
2022/11/17 03:46:23;;;;;;;7.10;2.10;;;;;;;8.90;100.00;98368.72;5055435;28;20381;-45
2022/11/17 03:48:57;;;;;;;8.32;2.25;;;;;;;8.87;100.00;98369.59;5054457;28;20033;-48
2022/11/17 03:51:27;;;;;;;4.35;2.22;;;;;;;8.82;100.00;98366.19;5055508;28;20029;-47
2022/11/17 03:53:53;;;;;;;5.47;2.08;;;;;;;8.84;100.00;98359.31;5055066;28;20021;-47
2022/11/17 03:56:40;;;;;;;5.15;2.03;;;;;;;8.92;100.00;98361.00;5054682;28;20021;-44
2022/11/17 03:59:11;;;;;;;6.10;2.00;;;;;;;8.92;100.00;98358.44;5054210;28;20040;-47
2022/11/17 04:01:36;;;;;;;3.88;1.95;;;;;;;8.90;100.00;98353.31;5054472;28;20029;-46
2022/11/17 04:04:02;;;;;;;4.82;1.70;;;;;;;8.98;100.00;98350.72;5055053;28;20357;-48
2022/11/17 04:06:27;;;;;;;6.70;2.10;;;;;;;9.05;100.00;98349.81;5055329;28;20062;-47
2022/11/17 04:08:52;;;;;;;6.20;2.00;;;;;;;9.11;100.00;98331.81;5053984;28;20444;-45
2022/11/17 04:16:45;;;;;;;5.35;2.20;;;;;;;9.25;100.00;98338.59;5054345;28;20442;-46
2022/11/17 04:19:11;;;;;;;5.00;2.40;;;;;;;9.27;100.00;98342.00;5054922;28;20456;-46
2022/11/17 04:21:36;;;;;;;8.20;3.05;;;;;;;9.32;100.00;98345.41;5054943;28;20052;-47
2022/11/17 04:24:01;;;;;;;7.22;4.30;;;;;;;9.34;100.00;98343.69;5053632;28;20032;-47
2022/11/17 04:29:11;;;;;;;10.75;5.30;;;;;;;9.36;100.00;98334.22;5055212;28;20043;-46
2022/11/17 04:31:36;;;;;;;9.45;5.30;;;;;;;9.38;100.00;98341.06;5053992;28;20380;-48
2022/11/17 04:34:03;;;;;;;8.15;5.30;;;;;;;9.37;100.00;98339.38;5054387;28;20027;-45
2022/11/17 04:36:33;;;;;;;12.65;5.20;;;;;;;9.38;100.00;98335.09;5053760;28;20430;-46
2022/11/17 04:38:59;;;;;;;10.10;5.07;;;;;;;9.33;100.00;98339.41;5054241;28;20032;-47
2022/11/17 04:44:13;;;;;;;9.25;4.25;;;;;;;9.24;100.00;98332.59;5053941;28;20044;-47
2022/11/17 04:46:39;;;;;;;13.73;4.43;;;;;;;9.18;100.00;98323.22;5054515;28;20025;-47
2022/11/17 04:49:06;;;;;;;9.75;4.30;;;;;;;9.12;100.00;98309.56;5054176;28;20021;-48
2022/11/17 04:51:32;;;;;;;11.30;3.97;;;;;;;9.13;100.00;98308.66;5053492;28;20036;-46
2022/11/17 04:53:57;;;;;;;8.30;4.20;;;;;;;9.10;100.00;98306.97;5054111;28;20082;-46
2022/11/17 04:56:24;;;;;;;8.55;4.40;;;;;;;9.06;100.00;98302.72;5054418;28;20033;-48
2022/11/17 04:58:50;;;;;;;17.38;4.68;;;;;;;9.03;100.00;98297.59;5052840;28;20083;-46
2022/11/17 05:01:17;;;;;;;12.40;4.03;;;;;;;9.01;100.00;98297.63;5054122;28;20096;-48
2022/11/17 05:03:48;;;;;;;10.15;4.30;;;;;;;8.99;100.00;98293.34;5053716;28;20361;-46
2022/11/17 05:06:16;;;;;;;9.55;4.00;;;;;;;8.97;100.00;98292.50;5053177;28;20037;-48
2022/11/17 05:08:43;;;;;;;13.10;4.53;;;;;;;8.97;100.00;98295.06;5053816;28;20043;-47
2022/11/17 05:13:53;;;;;;;12.15;4.25;;;;;;;8.95;100.00;98291.63;5053605;28;20040;-47
2022/11/17 05:19:05;;;;;;;14.70;4.43;;;;;;;8.99;100.00;98308.75;5053015;28;20063;-46
2022/11/17 05:21:31;;;;;;;14.00;5.28;;;;;;;8.96;100.00;98311.31;5053935;28;20029;-48
2022/11/17 05:23:57;;;;;;;15.27;4.70;;;;;;;8.98;100.00;98299.34;5053532;28;20031;-47
2022/11/17 05:26:28;;;;;;;12.85;4.55;;;;;;;8.99;100.00;98312.16;5052834;28;20028;-48
2022/11/17 05:28:55;;;;;;;17.65;4.60;;;;;;;8.99;100.00;98312.16;5053397;28;20048;-47
2022/11/17 05:31:21;;;;;;;15.77;4.63;;;;;;;9.04;100.00;98312.16;5053422;28;20365;-44
2022/11/17 05:33:46;;;;;;;20.10;4.20;;;;;;;9.07;100.00;98340.41;5052591;28;20480;-45
2022/11/17 05:36:12;;;;;;;20.92;4.28;;;;;;;9.11;100.00;98328.41;5053730;28;20393;-46
2022/11/17 05:38:38;;;;;;;24.23;3.80;;;;;;;9.20;100.00;98328.34;5053274;28;20384;-48
2022/11/17 05:41:04;;;;;;;16.52;3.75;;;;;;;9.19;100.00;98337.78;5052232;28;20476;-46
2022/11/17 05:43:29;;;;;;;15.30;4.00;;;;;;;9.22;100.00;98335.19;5053285;28;20029;-46
2022/11/17 05:45:54;;;;;;;17.30;3.83;;;;;;;9.19;100.00;98332.63;5052861;28;20025;-46
2022/11/17 05:48:19;;;;;;;24.25;4.25;;;;;;;9.16;100.00;98337.78;5052528;28;20059;-47
2022/11/17 05:50:45;;;;;;;19.10;3.85;;;;;;;9.16;100.00;98334.38;5053231;28;20028;-47
2022/11/17 05:53:10;;;;;;;23.17;4.13;;;;;;;9.14;100.00;98347.22;5053419;28;20078;-47
2022/11/17 05:55:35;;;;;;;20.45;4.05;;;;;;;9.13;100.00;98342.94;5052543;28;20540;-48
2022/11/17 05:58:08;;;;;;;24.30;4.60;;;;;;;9.11;100.00;98346.38;5052692;28;20036;-46
2022/11/17 06:00:36;;;;;;;24.52;4.90;;;;;;;9.11;100.00;98349.78;5052979;28;20029;-47
2022/11/17 06:03:07;;;;;;;22.27;4.72;;;;;;;9.12;100.00;98354.06;5051962;28;20028;-46
2022/11/17 06:05:32;;;;;;;22.83;4.28;;;;;;;9.12;100.00;98351.50;5053146;28;20101;-46
2022/11/17 06:07:58;;;;;;;22.27;3.95;;;;;;;9.14;100.00;98352.38;5051896;28;20064;-46
2022/11/17 06:10:24;;;;;;;21.75;3.83;;;;;;;9.15;100.00;98356.63;5052950;28;20040;-46
2022/11/17 06:12:50;;;;;;;20.42;4.45;;;;;;;9.14;100.00;98357.50;5052588;28;20108;-46
2022/11/17 06:15:15;;;;;;;21.08;4.70;;;;;;;9.14;100.00;98357.50;5052298;28;20108;-46
2022/11/17 06:17:48;;;;;;;32.90;5.30;;;;;;;9.15;100.00;98358.34;5052641;28;20510;-47
2022/11/17 06:20:20;;;;;;;27.10;4.35;;;;;;;9.16;100.00;98362.63;5053011;28;20037;-48
2022/11/17 06:22:47;;;;;;;27.63;4.50;;;;;;;9.15;100.00;98360.91;5051159;28;20090;-46
2022/11/17 06:25:12;;;;;;;38.38;5.20;;;;;;;9.18;100.00;98368.59;5052764;28;20029;-47
2022/11/17 06:27:40;;;;;;;24.17;4.22;;;;;;;9.17;100.00;98366.91;5052673;28;20025;-46
2022/11/17 06:30:05;;;;;;;28.58;4.32;;;;;;;9.16;100.00;98370.34;5051967;28;20036;-48
2022/11/17 06:32:34;;;;;;;22.45;4.45;;;;;;;9.15;100.00;98374.59;5052843;28;20033;-46
2022/11/17 06:35:02;;;;;;;21.85;3.30;;;;;;;9.14;100.00;98372.91;5052556;28;20025;-48
2022/11/17 06:37:27;;;;;;;25.08;4.05;;;;;;;9.11;100.00;98367.78;5051913;28;20029;-46
2022/11/17 06:39:53;;;;;;;24.60;3.45;;;;;;;9.08;100.00;98378.09;5052468;28;20093;-47
2022/11/17 06:42:18;;;;;;;22.38;4.32;;;;;;;9.09;100.00;98373.78;5052607;28;20036;-48
2022/11/17 06:44:43;;;;;;;18.73;3.25;;;;;;;9.05;100.00;98385.78;5051474;28;20033;-47
2022/11/17 06:47:08;;;;;;;19.33;3.15;;;;;;;9.03;100.00;98385.78;5052734;28;20388;-49
2022/11/17 06:49:34;;;;;;;16.08;2.75;;;;;;;9.02;100.00;98394.34;5052665;28;20075;-47
2022/11/17 06:51:59;;;;;;;21.25;3.10;;;;;;;8.96;100.00;98402.13;5051490;28;20033;-47
2022/11/17 06:54:24;;;;;;;22.50;3.10;;;;;;;8.91;100.00;98398.69;5052456;28;20025;-47
2022/11/17 06:56:50;;;;;;;14.55;2.67;;;;;;;8.89;100.00;98401.25;5052181;28;20139;-46
2022/11/17 06:59:16;;;;;;;14.25;2.88;;;;;;;8.87;100.00;98399.53;5051765;28;20021;-48
2022/11/17 07:01:42;;;;;;;17.13;3.42;;;;;;;8.82;100.00;98409.84;5052401;28;20484;-45
2022/11/17 07:04:07;;;;;;;20.85;4.35;;;;;;;8.80;100.00;98413.28;5051522;28;20360;-47
2022/11/17 07:06:36;;;;;;;16.98;3.17;;;;;;;8.81;100.00;98403.00;5052265;28;20487;-47
2022/11/17 07:09:03;;;;;;;20.75;3.55;;;;;;;8.80;100.00;98419.25;5051888;28;20380;-45
2022/11/17 07:11:28;;;;;;;16.70;3.35;;;;;;;8.77;100.00;98414.16;5051769;28;20017;-48
2022/11/17 07:13:54;;;;;;;20.25;2.85;;;;;;;8.75;100.00;98422.72;5052155;28;20028;-46
2022/11/17 07:16:19;;;;;;;17.55;2.58;;;;;;;8.75;100.00;98420.97;5052384;28;20430;-48
2022/11/17 07:18:44;;;;;;;24.25;3.67;;;;;;;8.72;100.00;98421.00;5051013;28;20024;-48
2022/11/17 07:21:12;;;;;;;21.00;3.55;;;;;;;8.71;100.00;98424.41;5052252;28;20028;-46
2022/11/17 07:23:38;;;;;;;;;;;;;;;8.76;100.00;98427.00;5052615;28;20032;-48
2022/11/17 07:26:04;;;;;;;20.45;4.10;;;;;;;8.68;100.00;98424.44;5051340;28;19917;-47
2022/11/17 07:28:29;;;;;;;15.13;2.85;;;;;;;8.64;100.00;98428.72;5052379;28;20029;-47
2022/11/17 07:30:55;;;;;;;22.33;4.63;;;;;;;8.62;100.00;98421.88;5051993;28;20025;-47
2022/11/17 07:33:21;;;;;;;24.35;3.58;;;;;;;8.62;100.00;98440.69;5051379;28;20029;-45
2022/11/17 07:35:47;;;;;;;11.52;2.60;;;;;;;8.62;100.00;98440.69;5054508;28;20492;-49
2022/11/17 07:38:12;;;;;;;19.90;3.28;;;;;;;8.60;100.00;98444.13;5055617;28;20049;-46
2022/11/17 07:40:37;;;;;;;15.77;2.83;;;;;;;8.57;100.00;98445.84;5054907;28;20033;-47
2022/11/17 07:43:03;;;;;;;21.83;3.08;;;;;;;8.55;100.00;98439.84;5055271;28;20376;-47
2022/11/17 07:45:28;;;;;;;12.95;3.53;;;;;;;8.53;100.00;98446.72;5055444;28;20072;-47
2022/11/17 07:47:55;;;;;;;18.92;2.72;;;;;;;8.51;100.00;98448.41;5054489;28;20029;-47
2022/11/17 07:50:22;;;;;;;19.00;2.92;;;;;;;8.50;100.00;98451.00;5055468;28;20029;-45
2022/11/17 07:52:49;;;;;;;16.38;2.50;;;;;;;8.51;100.00;98456.13;5055021;28;20071;-48
2022/11/17 07:55:14;;;;;;;16.13;2.53;;;;;;;8.51;100.00;98453.56;5054759;28;20025;-48
2022/11/17 07:57:39;;;;;;;17.33;2.70;;;;;;;8.50;100.00;98466.41;5055107;28;20048;-48
2022/11/17 08:00:05;;;;;;;13.35;3.08;;;;;;;8.49;100.00;98462.13;5055100;28;20055;-48
2022/11/17 08:02:30;;;;;;;12.68;2.83;;;;;;;8.50;100.00;98464.69;5054503;28;20051;-47
2022/11/17 08:04:56;;;;;;;11.52;2.50;;;;;;;8.52;100.00;98472.38;5054932;28;20017;-47
2022/11/17 08:07:21;;;;;;;14.68;2.42;;;;;;;8.52;100.00;98477.50;5054201;28;20032;-47
2022/11/17 08:09:46;;;;;;;10.90;2.38;;;;;;;8.52;100.00;98480.94;5054950;28;20532;-46
2022/11/17 08:12:12;;;;;;;13.90;2.80;;;;;;;8.53;100.00;98484.34;5054915;28;20032;-47
2022/11/17 08:14:37;;;;;;;17.10;2.70;;;;;;;8.51;100.00;98484.34;5054186;28;20021;-46
2022/11/17 08:17:02;;;;;;;10.82;2.45;;;;;;;8.51;100.00;98484.34;5054820;28;20025;-46
2022/11/17 08:19:27;;;;;;;16.80;5.28;;;;;;;8.50;100.00;98492.91;5054781;28;20519;-47
2022/11/17 08:21:53;;;;;;;21.70;3.53;;;;;;;8.51;100.00;98493.78;5053769;28;20033;-48
2022/11/17 08:24:18;;;;;;;13.25;2.60;;;;;;;8.50;100.00;98492.06;5054790;28;20025;-45
2022/11/17 08:26:43;;;;;;;9.00;2.53;;;;;;;8.49;100.00;98498.91;5054304;28;20041;-47
2022/11/17 08:29:08;;;;;;;11.18;2.65;;;;;;;8.48;100.00;98502.34;5054029;28;20476;-47
2022/11/17 08:31:34;;;;;;;12.55;2.70;;;;;;;8.47;100.00;98503.19;5054552;28;20025;-47
2022/11/17 08:33:59;;;;;;;12.55;2.47;;;;;;;8.46;100.00;98511.75;5054371;28;20361;-48
2022/11/17 08:36:24;;;;;;;10.80;2.33;;;;;;;8.47;100.00;98497.19;5053810;28;20074;-48
2022/11/17 08:38:50;;;;;;;15.77;2.63;;;;;;;8.45;100.00;98504.00;5054053;28;20033;-47
2022/11/17 08:41:15;;;;;;;11.43;2.40;;;;;;;8.40;100.00;98506.56;5054735;28;20491;-47
2022/11/17 08:43:40;;;;;;;9.80;2.38;;;;;;;8.40;100.00;98516.84;5053659;28;20021;-45
2022/11/17 08:46:10;;;;;;;11.63;2.88;;;;;;;8.40;100.00;98527.97;5054097;28;20032;-47
2022/11/17 08:48:35;;;;;;;12.68;2.78;;;;;;;8.37;100.00;98516.84;5054412;28;20061;-48
2022/11/17 08:51:05;;;;;;;11.23;2.08;;;;;;;8.35;100.00;98526.25;5053228;28;20110;-46
2022/11/17 08:53:31;;;;;;;7.72;2.47;;;;;;;8.32;100.00;98518.53;5054266;28;20025;-44
2022/11/17 08:55:56;;;;;;;12.63;2.58;;;;;;;8.32;100.00;98518.53;5053835;28;20100;-46
2022/11/17 08:58:21;;;;;;;14.05;2.47;;;;;;;8.30;100.00;98533.06;5053253;28;20045;-48
2022/11/17 09:00:47;;;;;;;13.60;2.72;;;;;;;8.29;100.00;98514.25;5053762;28;20025;-46
2022/11/17 09:03:12;;;;;;;11.38;2.60;;;;;;;8.29;100.00;98532.22;5054141;28;20059;-47
2022/11/17 09:05:39;;;;;;;8.40;2.30;;;;;;;8.28;100.00;98532.22;5053621;28;20017;-46
2022/11/17 09:08:04;;;;;;;12.50;2.80;;;;;;;8.29;100.00;98533.91;5053841;28;20017;-47
2022/11/17 09:10:30;;;;;;;12.40;2.72;;;;;;;8.31;100.00;98537.34;5054137;28;20542;-45
2022/11/17 09:12:56;;;;;;;13.88;2.55;;;;;;;8.32;100.00;98539.91;5052929;28;20021;-47
2022/11/17 09:15:22;;;;;;;11.65;2.50;;;;;;;8.32;100.00;98547.63;5053920;28;20024;-47
2022/11/17 09:17:47;;;;;;;11.95;2.83;;;;;;;8.33;100.00;98548.50;5052630;28;20423;-47
2022/11/17 09:20:14;;;;;;;10.60;2.35;;;;;;;8.34;100.00;98548.50;5053666;28;20480;-44
2022/11/17 09:22:40;;;;;;;12.37;2.47;;;;;;;8.34;100.00;98548.50;5053608;28;20432;-47
2022/11/17 09:25:05;;;;;;;10.88;2.85;;;;;;;8.35;100.00;98554.47;5052943;28;20112;-47
2022/11/17 09:27:30;;;;;;;11.48;3.00;;;;;;;8.35;100.00;98554.47;5053654;28;20021;-45
2022/11/17 09:29:56;;;;;;;9.90;2.40;;;;;;;8.37;100.00;98555.34;5053149;28;20028;-47
2022/11/17 09:32:21;;;;;;;13.13;2.55;;;;;;;8.36;100.00;98558.75;5052835;28;20112;-47
2022/11/17 09:34:46;;;;;;;9.93;2.58;;;;;;;8.38;100.00;98569.91;5053207;28;20086;-47
2022/11/17 09:37:11;;;;;;;13.18;2.70;;;;;;;8.39;100.00;98561.31;5053621;28;20039;-46
2022/11/17 09:39:37;;;;;;;14.07;2.70;;;;;;;8.40;100.00;98565.59;5052735;28;20044;-46
2022/11/17 09:42:02;;;;;;;18.27;3.00;;;;;;;8.42;100.00;98566.47;5053270;28;20033;-47
2022/11/17 09:44:38;;;;;;;13.20;2.95;;;;;;;8.47;100.00;98571.63;5053430;28;20021;-47
2022/11/17 09:47:17;;;;;;;10.05;2.70;;;;;;;8.52;100.00;98580.19;5052211;28;20021;-47
2022/11/17 09:50:01;;;;;;;10.32;2.63;;;;;;;8.56;100.00;98585.34;5052967;28;20078;-47
2022/11/17 09:52:33;;;;;;;11.82;2.95;;;;;;;8.63;100.00;98587.94;5053109;28;20357;-47
2022/11/17 09:55:02;;;;;;;9.50;2.67;;;;;;;8.69;100.00;98587.94;5052256;28;20025;-48
2022/11/17 09:57:48;;;;;;;16.80;2.85;;;;;;;8.75;100.00;98584.50;5052205;28;20052;-46
2022/11/17 10:00:24;;;;;;;20.25;4.60;;;;;;;8.80;100.00;98587.94;5051955;28;20041;-47
2022/11/17 10:02:51;;;;;;;15.40;3.05;;;;;;;8.83;100.00;98593.06;5052732;28;20074;-47
2022/11/17 10:05:31;;;;;;;12.30;2.93;;;;;;;8.86;100.00;98591.34;5053140;28;20048;-47
2022/11/17 10:08:05;;;;;;;13.98;2.97;;;;;;;8.89;100.00;98596.47;5051719;28;20404;-48
2022/11/17 10:10:41;;;;;;;13.85;2.50;;;;;;;8.93;100.00;98593.94;5052859;28;20025;-47
2022/11/17 10:13:18;;;;;;;11.55;2.47;;;;;;;8.96;100.00;98601.63;5052867;28;20084;-48
2022/11/17 10:15:49;;;;;;;13.45;2.55;;;;;;;8.99;100.00;98602.47;5051903;28;20029;-47
2022/11/17 10:18:16;;;;;;;16.60;3.13;;;;;;;9.05;100.00;98615.34;5052871;28;20086;-47
2022/11/17 10:20:42;;;;;;;17.40;2.85;;;;;;;9.12;100.00;98616.19;5052304;28;20029;-46
2022/11/17 10:23:17;;;;;;;12.77;2.70;;;;;;;9.19;100.00;98617.91;5052093;28;20033;-47
2022/11/17 10:25:48;;;;;;;11.63;2.60;;;;;;;9.27;100.00;98624.72;5052392;28;20495;-46
2022/11/17 10:28:27;;;;;;;12.98;2.72;;;;;;;9.33;100.00;98614.44;5052218;28;20461;-47
2022/11/17 10:31:01;;;;;;;11.35;2.25;;;;;;;9.38;100.00;98625.59;5052409;28;20013;-47
2022/11/17 10:33:37;;;;;;;14.02;2.47;;;;;;;9.43;100.00;98631.56;5052847;28;20033;-46
2022/11/17 10:36:17;;;;;;;14.23;2.35;;;;;;;9.48;100.00;98629.84;5051744;28;20044;-47
2022/11/17 10:38:48;;;;;;;11.70;1.90;;;;;;;9.52;100.00;98634.13;5052287;28;20491;-47
2022/11/17 10:41:24;;;;;;;10.43;2.33;;;;;;;9.58;100.00;98641.00;5052648;28;20041;-48
2022/11/17 10:44:03;;;;;;;11.40;2.72;;;;;;;9.64;100.00;98628.09;5051511;28;20112;-47
2022/11/17 10:46:29;;;;;;;73.35;32.40;;;;;;;9.71;100.00;98639.25;5053048;28;20029;-46
2022/11/17 10:49:02;;;;;;;13.23;5.40;;;;;;;9.75;100.00;98635.81;5052395;28;20021;-45
2022/11/17 10:51:32;;;;;;;14.70;2.55;;;;;;;9.79;100.00;98655.50;5051882;28;20104;-45
2022/11/17 10:54:15;;;;;;;15.00;3.40;;;;;;;9.79;100.00;98645.22;5052253;28;20029;-48
2022/11/17 10:56:48;;;;;;;32.35;13.48;;;;;;;9.76;100.00;98654.66;5051433;28;20147;-47
2022/11/17 10:59:16;;;;;;;19.15;4.38;;;;;;;9.69;100.00;98651.25;5052570;28;20025;-46
2022/11/17 11:01:44;;;;;;;12.13;3.65;;;;;;;9.63;100.00;98654.69;5052376;28;20067;-48
2022/11/17 11:04:28;;;;;;;31.55;12.77;;;;;;;9.61;100.00;98661.53;5051700;28;20021;-46
2022/11/17 11:07:18;;;;;;;19.00;4.68;;;;;;;9.58;100.00;98659.00;5051972;28;20021;-48
2022/11/17 11:10:01;;;;;;;10.93;2.50;;;;;;;9.54;100.00;98658.13;5054943;28;20057;-47
2022/11/17 11:13:12;;;;;;;14.35;4.53;;;;;;;9.59;100.00;98667.56;5055442;28;20499;-44
2022/11/17 11:15:38;;;;;;;13.38;3.80;;;;;;;9.50;100.00;98666.72;5056424;28;20063;-47
2022/11/17 11:18:11;;;;;;;9.63;2.95;;;;;;;9.48;100.00;98663.28;5055098;28;20021;-46
2022/11/17 11:20:47;;;;;;;13.35;3.50;;;;;;;9.46;100.00;98672.69;5055987;28;20033;-47
2022/11/17 11:23:42;;;;;;;11.95;2.67;;;;;;;9.47;100.00;98673.56;5055899;28;20453;-47
2022/11/17 11:26:24;;;;;;;15.23;2.55;;;;;;;9.46;100.00;98675.25;5055262;28;20021;-47
2022/11/17 11:28:55;;;;;;;8.85;2.20;;;;;;;9.43;100.00;98667.56;5055618;28;20025;-48
2022/11/17 11:31:23;;;;;;;11.85;3.03;;;;;;;9.43;100.00;98671.88;5055179;28;20025;-48
2022/11/17 11:34:42;;;;;;;11.07;2.80;;;;;;;9.44;100.00;98674.44;5055473;28;20040;-43
2022/11/17 11:37:10;;;;;;;12.48;2.35;;;;;;;9.43;100.00;98672.72;5033769;28;20412;-46
2022/11/17 11:39:52;;;;;;;10.98;3.17;;;;;;;9.46;100.00;98688.13;5032884;28;20094;-47
2022/11/17 11:42:46;;;;;;;11.70;3.03;;;;;;;9.48;100.00;98686.41;5046571;28;20476;-46
2022/11/17 11:45:17;;;;;;;7.43;2.67;;;;;;;9.46;100.00;98688.13;5052410;28;20192;-47
2022/11/17 11:47:57;;;;;;;11.32;2.90;;;;;;;9.47;100.00;98699.28;5054623;28;20107;-47
2022/11/17 11:50:29;;;;;;;20.52;3.72;;;;;;;9.49;100.00;98698.44;5055383;28;20021;-46
2022/11/17 11:53:03;;;;;;;14.05;3.40;;;;;;;9.48;100.00;98683.84;5054544;28;20044;-48
2022/11/17 11:55:33;;;;;;;12.18;3.75;;;;;;;9.47;100.00;98694.97;5055260;28;20384;-47
2022/11/17 11:58:11;;;;;;;11.50;3.42;;;;;;;9.48;100.00;98701.84;5054994;28;20052;-46
2022/11/17 12:00:40;;;;;;;7.80;2.58;;;;;;;9.47;100.00;98700.13;5054395;28;20025;-46
2022/11/17 12:03:32;;;;;;;11.82;2.90;;;;;;;9.48;100.00;98696.69;5054998;28;20086;-47
2022/11/17 12:08:57;;;;;;;8.45;2.35;;;;;;;9.55;100.00;98712.97;5054287;28;20067;-46
2022/11/17 12:14:16;;;;;;;18.80;3.28;;;;;;;9.62;100.00;98706.09;5054490;28;20460;-47